Time;durP1;ratioP1;P1;durP2;ratioP2;P2;SDS_P1;SDS_P2;PMS_P1;PMS_P2;Temp;Humidity;BMP_temperature;BMP_pressure;BME280_temperature;BME280_humidity;BME280_pressure;Samples;Min_cycle;Max_cycle;Signal;HPM_P1;HPM_P2
2022/04/12 00:03:53;;;;;;;;;;;5.40;99.90;;;4.28;86.50;95491.41;10469856;28;1885;-69
2022/04/12 00:08:56;;;;;;;;;;;5.40;99.90;;;4.28;86.23;95484.22;10474244;28;1845;-69
2022/04/12 00:13:59;;;;;;;;;;;5.40;99.90;;;4.29;87.09;95482.38;10473788;28;1847;-69
2022/04/12 00:19:06;;;;;;;;;;;5.40;99.90;;;4.30;87.23;95479.47;10480330;28;1984;-69
2022/04/12 00:24:10;;;;;;;;;;;5.50;99.90;;;4.25;87.55;95478.56;10475387;28;1830;-70
2022/04/12 00:29:13;;;;;;;;;;;5.30;99.90;;;4.23;87.63;95481.47;10476193;28;1854;-70
2022/04/12 00:34:16;;;;;;;;;;;5.40;99.90;;;4.17;88.31;95479.78;10467801;28;1863;-69
2022/04/12 00:39:19;;;;;;;;;;;5.30;99.90;;;4.22;88.48;95476.41;10461756;28;2292;-68
2022/04/12 00:44:22;;;;;;;;;;;5.30;99.90;;;4.39;87.64;95487.03;10470404;28;1966;-70
2022/04/12 00:49:25;;;;;;;;;;;5.40;99.90;;;4.36;87.75;95488.34;10466421;28;1994;-70
2022/04/12 00:54:28;;;;;;;;;;;5.40;99.90;;;4.46;87.43;95477.06;10482222;28;1830;-71
2022/04/12 00:59:31;;;;;;;;;;;5.40;99.90;;;4.33;87.97;95479.00;10484232;28;1914;-70
2022/04/12 01:04:33;;;;;;;;;;;5.40;99.90;;;4.29;88.28;95475.19;10485312;28;1947;-69
2022/04/12 01:09:36;;;;;;;;;;;5.40;99.90;;;4.27;88.73;95458.69;10485206;28;2011;-69
2022/04/12 01:14:41;;;;;;;;;;;5.30;99.90;;;4.28;88.57;95449.63;10485800;28;1923;-69
2022/04/12 01:19:44;;;;;;;;;;;5.30;99.90;;;4.22;88.36;95445.28;10486418;28;2100;-69
2022/04/12 01:24:47;;;;;;;;;;;5.30;99.90;;;4.18;88.24;95459.28;10484929;28;1958;-69
2022/04/12 01:29:52;;;;;;;;;;;5.30;99.90;;;4.19;87.95;95450.25;10489866;28;2022;-69
2022/04/12 01:34:58;;;;;;;;;;;5.30;99.90;;;4.08;88.67;95454.63;10482233;28;1900;-68
2022/04/12 01:40:02;;;;;;;;;;;5.20;99.90;;;4.11;88.36;95448.81;10478826;28;1981;-70
2022/04/12 01:45:05;;;;;;;;;;;5.20;99.90;;;4.10;88.30;95451.72;10482982;28;1982;-70
2022/04/12 01:50:08;;;;;;;;;;;5.10;99.90;;;4.02;89.16;95447.59;10483807;28;1860;-70
2022/04/12 01:55:11;;;;;;;;;;;5.10;99.90;;;3.93;90.21;95446.38;10485194;28;2047;-69
2022/04/12 02:00:14;;;;;;;;;;;5.10;99.90;;;3.87;90.40;95440.16;10472590;28;2048;-70
2022/04/12 02:05:17;;;;;;;;;;;4.90;99.90;;;3.74;91.05;95451.09;10480583;28;1934;-68
2022/04/12 02:10:22;;;;;;;;;;;4.90;99.90;;;3.78;91.50;95450.38;10482327;28;1884;-68
2022/04/12 02:15:25;;;;;;;;;;;4.90;99.90;;;3.70;91.58;95453.44;10476775;28;1935;-69
2022/04/12 02:20:28;;;;;;;;;;;4.90;99.90;;;3.64;92.26;95449.06;10470901;28;1954;-69
2022/04/12 02:25:31;;;;;;;;;;;4.80;99.90;;;3.61;92.73;95452.19;10480967;28;1994;-69
2022/04/12 02:30:34;;;;;;;;;;;4.80;99.90;;;3.56;92.97;95443.31;10476011;28;1982;-69
2022/04/12 02:35:38;;;;;;;;;;;4.80;99.90;;;3.56;93.69;95452.09;10478981;28;1962;-68
2022/04/12 02:40:41;;;;;;;;;;;4.70;99.90;;;3.64;93.17;95446.41;10471783;28;1977;-70
2022/04/12 02:45:44;;;;;;;;;;;4.70;99.90;;;3.57;92.81;95450.25;10485367;28;1947;-71
2022/04/12 02:50:48;;;;;;;;;;;4.70;99.90;;;3.55;94.39;95449.66;10481916;28;1856;-70
2022/04/12 02:55:51;;;;;;;;;;;4.70;99.90;;;3.55;93.99;95453.13;10477909;28;2109;-69
2022/04/12 03:00:54;;;;;;;;;;;4.70;99.90;;;3.60;93.74;95460.41;10475167;28;1955;-69
2022/04/12 03:05:58;;;;;;;;;;;4.60;99.90;;;3.61;93.73;95454.03;10471741;28;1935;-70
2022/04/12 03:11:01;;;;;;;;;;;4.70;99.90;;;3.63;93.24;95447.47;10480675;28;1982;-70
2022/04/12 03:16:04;;;;;;;;;;;4.70;99.90;;;3.69;92.81;95446.50;10479785;28;2135;-70
2022/04/12 03:21:06;;;;;;;;;;;4.70;99.90;;;3.65;92.80;95448.00;10486347;28;2052;-69
2022/04/12 03:26:10;;;;;;;;;;;4.80;99.90;;;3.61;93.31;95446.88;10477223;28;2136;-70
2022/04/12 03:31:13;;;;;;;;;;;4.70;99.90;;;3.59;93.17;95435.69;10479278;28;2117;-69
2022/04/12 03:36:17;;;;;;;;;;;4.70;99.90;;;3.59;93.18;95438.34;10479913;28;1931;-70
2022/04/12 03:41:21;;;;;;;;;;;4.70;99.90;;;3.56;93.58;95430.00;10465573;28;1970;-69
2022/04/12 03:46:24;;;;;;;;;;;4.60;99.90;;;3.53;94.00;95433.97;10478734;28;1934;-69
2022/04/12 03:51:27;;;;;;;;;;;4.60;99.90;;;3.56;93.94;95435.34;10478603;28;1981;-70
2022/04/12 03:56:30;;;;;;;;;;;4.60;99.90;;;3.51;94.12;95444.84;10483483;28;2092;-68
2022/04/12 04:01:33;;;;;;;;;;;4.60;99.90;;;3.40;94.72;95445.69;10471303;28;1926;-68
2022/04/12 04:06:36;;;;;;;;;;;4.50;99.90;;;3.28;96.05;95447.56;10475752;28;2390;-71
2022/04/12 04:11:40;;;;;;;;;;;4.40;99.90;;;3.25;97.08;95451.50;10477181;28;2252;-70
2022/04/12 04:16:43;;;;;;;;;;;4.40;99.90;;;3.21;97.46;95449.56;10479698;28;2223;-70
2022/04/12 04:21:47;;;;;;;;;;;4.40;99.90;;;3.37;97.08;95445.34;10477228;28;2355;-70
2022/04/12 04:26:55;;;;;;;;;;;4.40;99.90;;;3.38;97.38;95449.63;10486886;28;1970;-70
2022/04/12 04:31:58;;;;;;;;;;;4.40;99.90;;;3.21;97.82;95450.34;10475681;28;1942;-69
2022/04/12 04:37:01;;;;;;;;;;;4.30;99.90;;;3.34;97.11;95456.44;10476829;28;1833;-68
2022/04/12 04:42:07;;;;;;;;;;;4.40;99.90;;;3.32;96.21;95451.38;10483668;23;2560;-77
2022/04/12 04:47:10;;;;;;;;;;;4.30;99.90;;;3.35;96.51;95447.44;10487734;28;2053;-78
2022/04/12 04:52:13;;;;;;;;;;;4.40;99.90;;;3.46;95.98;95449.25;10481896;28;1907;-77
2022/04/12 04:57:16;;;;;;;;;;;4.30;99.90;;;3.65;94.57;95445.34;10491809;28;2044;-80
2022/04/12 05:02:19;;;;;;;;;;;4.60;99.90;;;3.88;92.42;95444.44;10485084;28;2021;-77
2022/04/12 05:07:23;;;;;;;;;;;4.70;99.90;;;3.97;91.77;95460.81;10482224;28;2196;-76
2022/04/12 05:12:26;;;;;;;;;;;4.80;99.90;;;4.40;88.30;95467.38;10476163;28;1943;-76
2022/04/12 05:17:29;;;;;;;;;;;5.00;99.90;;;4.29;87.56;95467.22;10491170;28;1953;-77
2022/04/12 05:22:33;;;;;;;;;;;5.20;99.90;;;4.31;87.76;95459.78;10482622;28;2330;-78
2022/04/12 05:27:36;;;;;;;;;;;5.10;99.90;;;4.31;87.77;95467.75;10480299;28;2045;-76
2022/04/12 05:32:39;;;;;;;;;;;5.20;99.90;;;4.48;86.98;95469.63;10491713;28;2073;-78
2022/04/12 05:37:42;;;;;;;;;;;5.40;99.90;;;4.83;85.17;95467.50;10492465;28;2251;-79
2022/04/12 05:42:45;;;;;;;;;;;5.60;99.90;;;5.22;83.04;95469.38;10495373;28;1895;-79
2022/04/12 05:47:49;;;;;;;;;;;5.80;99.90;;;5.38;81.93;95469.28;10496001;28;1907;-77
2022/04/12 05:52:53;;;;;;;;;;;6.10;99.90;;;5.78;79.59;95476.13;10496281;28;1986;-76
2022/04/12 05:57:56;;;;;;;;;;;6.40;99.90;;;5.77;79.76;95474.53;10502095;28;1852;-77
2022/04/12 06:02:59;;;;;;;;;;;6.60;99.90;;;5.95;78.13;95479.56;10482883;28;1974;-75
2022/04/12 06:08:03;;;;;;;;;;;6.70;99.90;;;5.85;78.45;95479.44;10480915;28;2108;-76
2022/04/12 06:13:06;;;;;;;;;;;6.80;99.90;;;5.96;78.00;95480.38;10481850;28;2071;-78
2022/04/12 06:18:10;;;;;;;;;;;6.80;99.90;;;6.09;77.43;95484.50;10478412;28;1870;-77
2022/04/12 06:23:13;;;;;;;;;;;6.90;99.90;;;6.42;76.46;95478.91;10479552;28;2065;-76
2022/04/12 06:28:16;;;;;;;;;;;7.10;99.90;;;6.69;74.64;95473.53;10480191;28;2018;-76
2022/04/12 06:33:19;;;;;;;;;;;7.40;99.90;;;6.99;74.66;95478.28;10478033;28;1966;-76
2022/04/12 06:38:22;;;;;;;;;;;7.60;99.90;;;7.24;73.07;95474.13;10470834;28;1832;-78
2022/04/12 06:43:29;;;;;;;;;;;;;;;7.60;70.91;95469.75;10475458;28;1950;-76
2022/04/12 06:48:32;;;;;;;;;;;8.10;99.90;;;7.63;70.12;95471.09;10482085;28;1911;-77
2022/04/12 06:53:38;;;;;;;;;;;8.40;99.90;;;8.03;69.05;95481.94;10478696;28;2188;-76
2022/04/12 06:58:42;;;;;;;;;;;8.60;99.90;;;8.48;65.94;95471.59;10485729;28;1975;-77
2022/04/12 07:03:47;;;;;;;;;;;9.00;99.90;;;8.51;66.10;95469.16;10488413;28;1963;-79
2022/04/12 07:08:50;;;;;;;;;;;9.10;99.90;;;8.35;66.16;95464.84;10479744;28;1906;-76
2022/04/12 07:13:54;;;;;;;;;;;;;;;8.74;65.91;95480.44;10478984;28;1883;-78
2022/04/12 07:18:56;;;;;;;;;;;9.30;99.90;;;9.38;64.11;95474.44;10488771;28;2034;-77
2022/04/12 07:24:03;;;;;;;;;;;;;;;9.70;61.38;95482.09;10482515;28;2080;-77
2022/04/12 07:29:06;;;;;;;;;;;;;;;9.98;59.66;95481.41;10474068;28;1910;-78
2022/04/12 07:34:10;;;;;;;;;;;;;;;10.08;59.39;95485.94;10477724;28;1915;-77
2022/04/12 07:39:14;;;;;;;;;;;;;;;10.47;57.76;95493.25;10476229;28;2049;-79
2022/04/12 07:44:17;;;;;;;;;;;10.90;99.90;;;10.81;56.56;95490.56;10470278;28;2377;-78
2022/04/12 07:49:20;;;;;;;;;;;;;;;10.79;55.84;95481.97;10476473;28;1857;-78
2022/04/12 07:54:23;;;;;;;;;;;11.60;99.90;;;10.77;55.69;95484.16;10470090;28;1844;-76
2022/04/12 07:59:26;;;;;;;;;;;11.70;99.90;;;11.35;54.00;95476.88;10473326;28;1983;-77
2022/04/12 08:04:29;;;;;;;;;;;12.20;99.90;;;11.45;54.01;95470.59;10485396;28;1733;-80
2022/04/12 08:09:32;;;;;;;;;;;12.30;99.90;;;11.83;51.45;95468.00;10476950;28;1844;-79
2022/04/12 08:14:35;;;;;;;;;;;12.60;99.90;;;11.55;52.79;95456.22;10469886;28;1848;-79
2022/04/12 08:19:38;;;;;;;;;;;12.60;99.90;;;11.94;52.23;95457.91;10491694;28;1982;-78
2022/04/12 08:24:41;;;;;;;;;;;12.70;99.90;;;12.27;49.09;95456.91;10488878;28;1928;-78
2022/04/12 08:29:46;;;;;;;;;;;13.00;99.90;;;12.47;48.98;95450.44;10482862;28;1726;-79
2022/04/12 08:34:49;;;;;;;;;;;13.10;99.90;;;12.62;47.22;95446.69;10469824;28;1796;-76
2022/04/12 08:39:52;;;;;;;;;;;13.40;99.90;;;13.10;45.53;95444.50;10470165;28;1973;-77
2022/04/12 08:44:55;;;;;;;;;;;13.60;99.90;;;13.27;46.38;95443.19;10469378;28;1840;-77
2022/04/12 08:49:58;;;;;;;;;;;13.90;99.90;;;13.46;45.64;95433.91;10470343;28;1796;-78
2022/04/12 08:55:02;;;;;;;;;;;14.30;99.90;;;13.79;44.84;95439.19;10471795;28;1841;-77
2022/04/12 09:00:06;;;;;;;;;;;14.50;99.90;;;13.83;43.16;95442.09;10473939;28;1975;-78
2022/04/12 09:05:10;;;;;;;;;;;14.70;99.90;;;13.94;43.29;95443.47;10472904;28;1910;-75
2022/04/12 09:10:13;;;;;;;;;;;14.40;99.90;;;13.86;43.97;95431.47;10470659;28;2037;-76
2022/04/12 09:15:17;;;;;;;;;;;14.90;99.90;;;13.79;45.05;95441.88;10477811;28;1829;-78
2022/04/12 09:20:20;;;;;;;;;;;14.70;99.90;;;14.12;44.55;95430.91;10480721;28;1906;-78
2022/04/12 09:25:23;;;;;;;;;;;14.80;99.90;;;14.41;45.23;95436.75;10482500;28;1855;-79
2022/04/12 09:30:27;;;;;;;;;;;15.00;99.90;;;14.42;45.50;95435.63;10476407;28;1899;-78
2022/04/12 09:35:30;;;;;;;;;;;15.30;99.90;;;14.68;44.87;95419.63;10490980;28;1874;-79
2022/04/12 09:40:33;;;;;;;;;;;15.50;99.90;;;14.53;44.95;95428.13;10480178;28;2009;-78
2022/04/12 09:45:36;;;;;;;;;;;15.60;99.90;;;14.88;44.70;95413.72;10479926;28;1796;-78
2022/04/12 09:50:39;;;;;;;;;;;15.60;99.90;;;15.32;43.58;95405.81;10472029;28;1841;-78
2022/04/12 09:55:44;;;;;;;;;;;15.80;99.90;;;15.25;43.45;95402.75;10477130;28;1867;-79
2022/04/12 10:00:48;;;;;;;;;;;16.00;99.90;;;15.53;42.18;95387.91;10477381;28;1973;-78
2022/04/12 10:05:51;;;;;;;;;;;16.20;99.90;;;15.78;42.09;95383.72;10475443;28;1867;-78
2022/04/12 10:10:55;;;;;;;;;;;16.40;99.90;;;15.67;40.73;95371.56;10472309;28;1752;-77
2022/04/12 10:15:57;;;;;;;;;;;16.60;99.90;;;15.83;43.79;95377.31;10476691;28;1805;-78
2022/04/12 10:21:00;;;;;;;;;;;16.70;99.90;;;16.20;42.47;95365.88;10481003;28;1935;-78
2022/04/12 10:26:05;;;;;;;;;;;16.70;99.90;;;16.21;42.26;95355.81;10474560;28;1867;-78
2022/04/12 10:31:07;;;;;;;;;;;17.00;99.90;;;16.20;41.46;95357.75;10474478;28;1880;-80
2022/04/12 10:36:31;;;;;;;;;;;17.10;99.90;;;16.41;40.56;95348.94;10481836;28;1895;-77
2022/04/12 10:41:35;;;;;;;;;;;17.20;99.90;;;16.47;40.38;95347.66;10473406;28;1973;-77
2022/04/12 10:46:38;;;;;;;;;;;17.30;99.90;;;16.79;37.16;95343.66;10469840;28;1789;-79
2022/04/12 10:51:41;;;;;;;;;;;17.50;99.90;;;17.07;39.89;95335.91;10476792;28;2414;-79
2022/04/12 10:56:44;;;;;;;;;;;17.80;99.90;;;16.66;41.26;95339.97;10477906;28;1888;-80
2022/04/12 11:01:48;;;;;;;;;;;17.70;99.90;;;16.96;42.38;95337.38;10476277;28;3554;-77
2022/04/12 11:06:51;;;;;;;;;;;17.70;99.90;;;16.72;42.38;95332.50;10478567;28;1848;-78
2022/04/12 11:11:58;;;;;;;;;;;17.60;99.90;;;16.52;43.46;95333.16;10478358;28;1766;-78
2022/04/12 11:17:01;;;;;;;;;;;17.70;99.90;;;16.76;43.48;95322.59;10474039;28;1843;-77
2022/04/12 11:22:05;;;;;;;;;;;17.50;99.90;;;16.50;43.95;95325.34;10467769;28;1987;-79
2022/04/12 11:27:08;;;;;;;;;;;17.50;99.90;;;16.91;42.39;95315.84;10470593;28;1897;-79
2022/04/12 11:32:11;;;;;;;;;;;17.60;99.90;;;17.11;42.95;95311.59;10465747;28;1890;-78
2022/04/12 11:37:14;;;;;;;;;;;17.80;99.90;;;17.43;41.33;95313.72;10469627;28;1833;-78
2022/04/12 11:42:22;;;;;;;;;;;18.20;99.90;;;17.27;42.21;95315.38;10472460;28;1981;-78
2022/04/12 11:47:25;;;;;;;;;;;18.20;99.90;;;17.18;42.72;95307.28;10474707;28;1841;-78
2022/04/12 11:52:28;;;;;;;;;;;18.20;99.90;;;16.91;42.90;95310.41;10471200;28;2234;-77
2022/04/12 11:57:31;;;;;;;;;;;17.90;99.90;;;16.98;42.67;95308.78;10471959;28;1840;-79
2022/04/12 12:02:34;;;;;;;;;;;17.80;99.90;;;16.96;43.03;95304.81;10474248;28;1906;-78
2022/04/12 12:07:37;;;;;;;;;;;17.90;99.90;;;17.07;43.51;95311.47;10465067;28;1817;-79
2022/04/12 12:12:41;;;;;;;;;;;17.80;99.90;;;17.17;42.76;95305.66;10469814;28;1840;-78
2022/04/12 12:17:49;;;;;;;;;;;18.00;99.90;;;17.11;42.79;95306.97;10476882;28;1986;-78
2022/04/12 12:22:52;;;;;;;;;;;18.10;99.90;;;17.50;42.46;95303.13;10475092;28;1911;-78
2022/04/12 12:27:55;;;;;;;;;;;18.20;99.90;;;17.39;42.29;95301.09;10475219;28;2145;-77
2022/04/12 12:32:58;;;;;;;;;;;18.30;99.90;;;17.52;41.95;95305.50;10475676;28;1836;-76
2022/04/12 12:38:02;;;;;;;;;;;18.30;99.90;;;17.64;40.81;95291.19;10476112;28;1836;-79
2022/04/12 12:43:05;;;;;;;;;;;18.50;99.90;;;17.85;41.40;95297.47;10474178;28;2001;-78
2022/04/12 12:48:09;;;;;;;;;;;18.70;99.90;;;17.76;42.02;95299.47;10493380;28;1856;-77
2022/04/12 12:53:14;;;;;;;;;;;18.70;99.90;;;17.83;40.90;95299.72;10501360;28;1828;-78
2022/04/12 12:58:18;;;;;;;;;;;18.60;99.90;;;17.97;39.76;95288.59;10476161;28;2038;-77
2022/04/12 13:03:20;;;;;;;;;;;18.70;99.90;;;18.05;40.81;95287.72;10475065;28;1971;-78
2022/04/12 13:08:24;;;;;;;;;;;19.20;99.90;;;18.14;40.56;95293.88;10478780;28;2192;-80
2022/04/12 13:13:27;;;;;;;;;;;19.00;99.90;;;18.15;40.44;95283.81;10496249;28;1838;-76
2022/04/12 13:18:31;;;;;;;;;;;19.00;99.90;;;18.12;40.40;95290.69;10477632;28;1825;-79
2022/04/12 13:23:34;;;;;;;;;;;19.00;99.90;;;18.07;39.94;95280.03;10484093;28;1918;-78
2022/04/12 13:28:37;;;;;;;;;;;18.90;99.90;;;18.17;39.75;95278.81;10485141;28;1878;-75
2022/04/12 13:33:40;;;;;;;;;;;18.80;99.90;;;17.99;39.23;95283.59;10483758;28;1886;-79
2022/04/12 13:38:45;;;;;;;;;;;18.90;99.90;;;18.30;37.79;95264.94;10480094;28;1987;-76
2022/04/12 13:43:48;;;;;;;;;;;19.00;99.90;;;18.24;37.54;95263.53;10478159;28;1988;-77
2022/04/12 13:48:51;;;;;;;;;;;19.00;99.90;;;17.98;37.99;95265.69;10477933;28;1855;-78
2022/04/12 13:53:55;;;;;;;;;;;18.90;99.90;;;18.10;37.31;95249.44;10482589;28;1962;-78
2022/04/12 13:58:59;;;;;;;;;;;19.00;99.90;;;18.20;37.11;95249.03;10478463;28;1965;-77
2022/04/12 14:04:03;;;;;;;;;;;19.00;99.90;;;18.14;37.10;95250.38;10479736;28;2172;-76
2022/04/12 14:09:05;;;;;;;;;;;19.10;99.90;;;18.28;36.48;95256.31;10477200;28;2477;-79
2022/04/12 14:14:11;;;;;;;;;;;19.00;99.90;;;18.60;36.15;95256.63;10478009;28;1831;-77
2022/04/12 14:19:15;;;;;;;;;;;19.30;99.90;;;18.68;35.27;95246.78;10495679;28;1750;-77
2022/04/12 14:24:18;;;;;;;;;;;19.30;99.90;;;18.65;35.20;95242.81;10475937;28;1941;-77
2022/04/12 14:29:22;;;;;;;;;;;19.50;99.90;;;18.97;34.85;95249.34;10476955;28;1813;-78
2022/04/12 14:34:25;;;;;;;;;;;19.50;99.90;;;18.88;34.24;95245.91;10475885;28;1768;-77
2022/04/12 14:39:29;;;;;;;;;;;19.60;99.90;;;18.76;33.90;95243.16;10471200;28;1808;-78
2022/04/12 14:44:32;;;;;;;;;;;19.60;99.90;;;18.64;33.80;95243.94;10477970;28;1977;-76
2022/04/12 14:49:36;;;;;;;;;;;19.50;99.90;;;18.68;33.77;95249.53;10474338;28;1840;-77
2022/04/12 14:54:39;;;;;;;;;;;19.40;99.90;;;18.64;33.50;95246.66;10475172;28;1808;-78
2022/04/12 14:59:43;;;;;;;;;;;19.50;99.90;;;18.58;33.74;95253.47;10471155;28;1795;-81
2022/04/12 15:04:47;;;;;;;;;;;19.40;99.90;;;18.61;33.42;95241.88;10470502;28;1945;-78
2022/04/12 15:09:51;;;;;;;;;;;19.40;99.90;;;18.55;33.17;95248.66;10471654;28;1911;-76
2022/04/12 15:14:54;;;;;;;;;;;19.40;99.90;;;18.47;33.38;95236.75;10474827;28;1487;-79
2022/04/12 15:19:58;;;;;;;;;;;19.20;99.90;;;18.58;33.46;95239.84;10471217;28;2216;-78
2022/04/12 15:25:01;;;;;;;;;;;19.20;99.90;;;18.58;33.49;95237.13;10476699;28;2051;-74
2022/04/12 15:30:10;;;;;;;;;;;19.30;99.90;;;18.42;34.32;95245.13;10464129;28;1891;-80
2022/04/12 15:35:13;;;;;;;;;;;19.20;99.90;;;18.52;34.86;95239.25;10478259;28;1841;-78
2022/04/12 15:40:16;;;;;;;;;;;19.20;99.90;;;19.93;36.27;95238.69;10491983;28;1947;-81
2022/04/12 15:45:19;;;;;;;;;;;19.50;99.90;;;20.12;32.24;95234.53;10493214;28;1971;-82
2022/04/12 15:50:22;;;;;;;;;;;20.40;87.50;;;19.73;34.42;95236.94;10495359;28;1758;-79
2022/04/12 15:55:27;;;;;;;;;;;20.40;87.40;;;20.04;33.48;95249.09;10503586;28;1841;-78
2022/04/12 16:00:30;;;;;;;;;;;20.70;87.30;;;20.38;32.28;95245.78;10500009;28;1836;-78
2022/04/12 16:05:33;;;;;;;;;;;21.00;86.80;;;18.80;34.45;95249.53;10504042;28;1895;-79
2022/04/12 16:10:36;;;;;;;;;;;20.20;85.60;;;18.70;34.91;95252.69;10498276;28;1753;-78
2022/04/12 16:15:39;;;;;;;;;;;19.70;86.80;;;18.14;35.17;95253.09;10491932;28;1827;-77
2022/04/12 16:20:42;;;;;;;;;;;19.30;86.50;;;17.91;35.61;95268.16;10499792;28;1984;-78
2022/04/12 16:25:46;;;;;;;;;;;18.90;86.60;;;17.73;35.72;95257.41;10508549;28;1922;-77
2022/04/12 16:30:48;;;;;;;;;;;18.70;86.60;;;17.70;35.58;95268.94;10515906;28;1868;-78
2022/04/12 16:35:52;;;;;;;;;;;18.60;86.70;;;17.48;35.42;95263.78;10514911;28;2032;-77
2022/04/12 16:40:55;;;;;;;;;;;18.50;86.10;;;17.18;35.91;95266.53;10494724;28;1899;-78
2022/04/12 16:45:59;;;;;;;;;;;18.20;86.20;;;17.06;35.92;95266.44;10501521;28;1987;-78
2022/04/12 16:51:02;;;;;;;;;;;18.00;86.10;;;16.85;35.72;95274.50;10495742;28;1825;-79
2022/04/12 16:56:06;;;;;;;;;;;17.80;86.00;;;16.72;35.94;95273.59;10499144;28;1888;-81
2022/04/12 17:01:09;;;;;;;;;;;17.70;85.80;;;16.58;35.97;95272.97;10487840;28;1950;-78
2022/04/12 17:06:12;;;;;;;;;;;17.60;86.00;;;16.43;35.88;95281.63;10486111;28;2005;-79
2022/04/12 17:11:15;;;;;;;;;;;17.40;85.50;;;16.31;35.99;95289.63;10490621;28;2315;-80
2022/04/12 17:16:19;;;;;;;;;;;17.30;95.00;;;16.07;36.12;95285.50;10484816;28;1884;-76
2022/04/12 17:21:22;;;;;;;;;;;17.10;85.40;;;15.89;36.58;95300.16;10484496;28;1907;-80
2022/04/12 17:26:25;;;;;;;;;;;16.90;85.70;;;15.73;35.97;95293.63;10491057;28;1910;-78
2022/04/12 17:31:28;;;;;;;;;;;16.70;85.20;;;15.57;36.01;95296.75;10486349;28;1800;-78
2022/04/12 17:36:32;;;;;;;;;;;16.60;85.00;;;15.45;36.09;95295.78;10495661;28;1800;-78
2022/04/12 17:41:36;;;;;;;;;;;16.40;84.80;;;15.29;36.17;95303.56;10490543;28;1833;-76
2022/04/12 17:46:39;;;;;;;;;;;16.30;84.90;;;15.13;36.38;95303.97;10493247;28;1981;-80
2022/04/12 17:51:42;;;;;;;;;;;16.10;84.90;;;14.96;36.74;95295.81;10482400;28;1994;-78
2022/04/12 17:56:52;;;;;;;;;;;16.00;84.80;;;14.80;36.77;95305.44;10493609;28;1843;-78
2022/04/12 18:01:55;;;;;;;;;;;15.90;84.90;;;14.62;36.99;95314.56;10488339;28;1953;-80
2022/04/12 18:06:59;;;;;;;;;;;15.70;85.10;;;14.51;37.41;95312.16;10486038;28;1968;-78
2022/04/12 18:12:04;;;;;;;;;;;15.50;85.40;;;14.41;37.39;95315.06;10486459;28;1904;-79
2022/04/12 18:17:08;;;;;;;;;;;15.40;85.50;;;14.38;37.64;95328.38;10485672;28;1864;-78
2022/04/12 18:22:12;;;;;;;;;;;15.30;85.70;;;14.29;38.01;95325.63;10482853;28;1968;-78
2022/04/12 18:27:16;;;;;;;;;;;15.30;86.00;;;14.15;38.23;95330.31;10487891;28;1904;-78
2022/04/12 18:32:20;;;;;;;;;;;15.10;88.20;;;14.06;38.37;95332.97;10489991;28;1820;-78
2022/04/12 18:37:23;;;;;;;;;;;15.00;86.40;;;13.92;39.18;95341.09;10495802;28;1923;-76
2022/04/12 18:42:28;;;;;;;;;;;15.00;86.70;;;13.82;39.40;95344.03;10484297;28;2220;-78
2022/04/12 18:47:31;;;;;;;;;;;14.80;87.00;;;13.71;39.54;95348.06;10486888;28;1836;-81
2022/04/12 18:52:34;;;;;;;;;;;14.70;87.20;;;13.65;39.08;95349.28;10485409;28;1891;-77
2022/04/12 18:57:39;;;;;;;;;;;14.60;87.10;;;13.61;39.02;95348.25;10479805;28;2005;-77
2022/04/12 19:02:45;;;;;;;;;;;14.60;86.90;;;13.57;39.44;95342.69;10486562;28;2228;-77
2022/04/12 19:07:49;;;;;;;;;;;14.60;87.20;;;13.57;38.89;95342.69;10483410;28;1800;-76
2022/04/12 19:12:52;;;;;;;;;;;14.50;87.00;;;13.53;39.17;95341.69;10483137;28;1767;-77
2022/04/12 19:17:57;;;;;;;;;;;14.50;87.00;;;13.42;39.53;95354.63;10479787;28;1714;-77
2022/04/12 19:23:00;;;;;;;;;;;14.40;87.40;;;13.32;38.86;95352.09;10479384;28;1910;-78
2022/04/12 19:28:04;;;;;;;;;;;14.30;87.10;;;13.20;38.40;95349.09;10481869;28;1932;-77
2022/04/12 19:33:07;;;;;;;;;;;14.20;88.30;;;13.19;38.80;95358.28;10479038;28;1785;-77
2022/04/12 19:38:11;;;;;;;;;;;14.10;86.00;;;13.05;38.71;95354.78;10483249;28;1801;-77
2022/04/12 19:43:14;;;;;;;;;;;14.00;86.10;;;12.93;39.09;95349.88;10480546;28;1894;-76
2022/04/12 19:48:18;;;;;;;;;;;13.90;85.80;;;12.83;38.69;95347.34;10482605;28;1831;-78
2022/04/12 19:53:22;;;;;;;;;;;13.80;85.60;;;12.82;38.11;95341.16;10489434;28;1883;-77
2022/04/12 19:58:26;;;;;;;;;;;13.80;85.20;;;12.65;38.17;95332.84;10479777;28;2228;-76
2022/04/12 20:03:29;;;;;;;;;;;13.70;84.80;;;12.55;37.96;95336.53;10493228;28;1962;-78
2022/04/12 20:08:32;;;;;;;;;;;13.50;84.50;;;12.32;38.63;95335.56;10483433;28;1845;-78
2022/04/12 20:13:35;;;;;;;;;;;13.50;84.90;;;12.33;38.53;95331.75;10480309;28;1860;-78
2022/04/12 20:18:38;;;;;;;;;;;13.30;85.90;;;12.17;38.24;95339.31;10479077;28;1717;-76
2022/04/12 20:23:41;;;;;;;;;;;13.20;84.90;;;12.03;38.84;95337.66;10478676;28;1938;-75
2022/04/12 20:28:44;;;;;;;;;;;13.00;90.10;;;12.04;38.91;95339.25;10479751;28;1808;-76
2022/04/12 20:33:49;;;;;;;;;;;13.00;90.20;;;12.00;39.22;95333.66;10484181;28;1746;-76
2022/04/12 20:38:52;;;;;;;;;;;13.00;90.00;;;11.78;39.71;95345.00;10477560;28;1840;-77
2022/04/12 20:43:57;;;;;;;;;;;12.80;90.30;;;11.76;39.91;95330.22;10474464;28;1967;-75
2022/04/12 20:49:02;;;;;;;;;;;12.70;89.70;;;11.60;39.83;95335.81;10476898;28;1918;-76
2022/04/12 20:54:05;;;;;;;;;;;12.60;90.00;;;11.57;40.40;95327.50;10481166;28;1892;-76
2022/04/12 20:59:09;;;;;;;;;;;12.60;91.80;;;11.46;40.71;95334.94;10477361;28;1868;-77
2022/04/12 21:04:12;;;;;;;;;;;12.50;91.20;;;11.21;41.46;95336.06;10478497;28;1989;-77
2022/04/12 21:09:21;;;;;;;;;;;12.30;93.30;;;11.08;42.36;95334.88;10489982;28;1886;-75
2022/04/12 21:14:25;;;;;;;;;;;12.20;92.70;;;10.99;42.89;95335.78;10493361;28;2256;-76
2022/04/12 21:19:28;;;;;;;;;;;12.10;93.50;;;10.92;43.09;95333.44;10486353;28;1820;-76
2022/04/12 21:24:31;;;;;;;;;;;12.00;93.30;;;10.80;43.08;95331.13;10490215;28;1909;-76
2022/04/12 21:29:35;;;;;;;;;;;11.90;98.00;;;10.59;44.82;95345.88;10503424;28;1783;-77
2022/04/12 21:34:37;;;;;;;;;;;11.80;94.90;;;10.42;45.17;95340.13;10490545;28;1842;-76
2022/04/12 21:39:42;;;;;;;;;;;11.60;95.80;;;10.20;46.56;95346.72;10481124;28;1932;-76
2022/04/12 21:44:45;;;;;;;;;;;11.50;97.20;;;10.10;46.26;95344.13;10484950;28;2228;-76
2022/04/12 21:49:49;;;;;;;;;;;11.30;94.80;;;10.13;45.70;95348.16;10498376;28;1970;-77
2022/04/12 21:54:52;;;;;;;;;;;11.20;93.60;;;9.94;46.50;95348.00;10483877;28;1844;-77
2022/04/12 21:59:56;;;;;;;;;;;11.10;93.00;;;9.76;47.61;95352.16;10482150;28;1975;-76
2022/04/12 22:05:04;;;;;;;;;;;10.90;93.20;;;9.68;48.57;95358.13;10479946;28;1918;-76
2022/04/12 22:10:08;;;;;;;;;;;10.80;94.30;;;9.53;48.70;95359.00;10483781;28;2286;-75
2022/04/12 22:15:11;;;;;;;;;;;10.70;99.20;;;9.48;48.99;95356.34;10485401;28;1920;-75
2022/04/12 22:20:15;;;;;;;;;;;10.70;99.90;;;9.37;49.73;95357.47;10480669;28;1958;-77
2022/04/12 22:25:18;;;;;;;;;;;10.50;99.90;;;9.30;50.51;95362.34;10485235;28;2008;-76
2022/04/12 22:30:21;;;;;;;;;;;10.50;99.90;;;9.32;50.58;95360.19;10482269;28;1823;-76
2022/04/12 22:35:24;;;;;;;;;;;10.40;99.90;;;9.17;50.77;95366.41;10488119;28;1811;-77
2022/04/12 22:40:28;;;;;;;;;;;10.30;99.90;;;9.16;50.93;95364.78;10483052;28;1846;-76
2022/04/12 22:45:31;;;;;;;;;;;10.30;99.90;;;9.13;51.62;95366.16;10492804;28;2001;-77
2022/04/12 22:50:34;;;;;;;;;;;10.20;99.90;;;9.31;50.99;95366.63;10473315;28;1818;-76
2022/04/12 22:55:37;;;;;;;;;;;10.20;99.90;;;9.18;51.37;95363.44;10488095;28;2000;-76
2022/04/12 23:00:40;;;;;;;;;;;10.20;99.90;;;9.14;51.72;95362.38;10488546;28;1833;-77
2022/04/12 23:05:43;;;;;;;;;;;10.20;99.90;;;9.02;51.99;95361.88;10483116;28;2021;-78
2022/04/12 23:10:46;;;;;;;;;;;10.00;99.90;;;8.89;52.92;95367.84;10486508;28;1827;-76
2022/04/12 23:15:49;;;;;;;;;;;10.00;99.90;;;8.75;53.89;95374.84;10485409;28;1910;-74
2022/04/12 23:20:52;;;;;;;;;;;9.90;99.90;;;8.70;53.33;95366.81;10485535;28;1859;-77
2022/04/12 23:25:56;;;;;;;;;;;9.80;99.90;;;8.73;53.68;95355.56;10486608;28;1954;-77
2022/04/12 23:31:00;;;;;;;;;;;9.70;99.90;;;8.64;53.95;95358.78;10504882;28;1836;-78